Ana Sayfa
METAR-TAF:

METAR-TAF

Havaalanları :

Hobbs, New Mexico, Amerika Birleşik Devletleri

Enlem: 32-41N, Boylam: 103-13W, yükseklik: 1115 m

Güncel hava durumu gözlemi

Rapor saat 03:15 UTC de 19 dakika önce yapıldı.
Rüzgar güney/güneydoğudan 14 kt
Sıcaklık 26°C
Nem 54%
Basınç 1016 hPa
Görüş mesafesi: 16.1 km
Açık gökyüzü

METAR: KHOB 180315Z AUTO 16014KT 10SM CLR 26/16 A2999 RMK AO2

Saat: 21:34 (03:34 UTC)

Tahmin

Rapor saat 02:01 UTC de 1 saat ve 33 dakika önce yapıldı.
Ayın 18'si saat 02 UTC'den ayın 18'si saat 24 UTC'ye kadar geçerli Tahmin
Rüzgar batıdan 11 kt
Görüş mesafesi: 10 km
10000 ft yükseklikte parçalı bulutlu
20000 ft yükseklikte parçalı çok bulutlu
Ayın 18'si saat 0400 UTC'den
Rüzgar güney/güneydoğudan 11 kt
Görüş mesafesi: 10 km
25000 ft yükseklikte parçalı çok bulutlu

TAF: KHOB 180201Z 1802/1824 27011KT P6SM SCT100 BKN200 FM180400 16011KT P6SM BKN250

4.000'den fazla havaalanı için hava durumu gözlemleri ve tahminleri (METAR ve TAF raporları).

Kullanılabilir istasyonlar harita üzerinde sarı ve kırmızı noktalarla gösterilir.

İstasyonun adını görmek için fareyi noktanın üzerinde gezdirin.

Sonrasında hava gözlem ve tahminlerini görmek için tıklayın.

Haritayı değiştirmek için: yaklaştırmak için siyah artı işaretli yeşil düğmeye ve uzaklaştırmak için de eksi işaretli düğmeye hızla tıklayın; bitişik haritalar için yeşil okları kullanın.


METAR-TAF: